createdAt,value
2019-01-27T00:00:15.177Z,0.82
2019-01-27T00:02:43.392Z,1.10
2019-01-27T00:05:11.632Z,0.65
2019-01-27T00:07:39.981Z,0.65
2019-01-27T00:10:10.448Z,1.05
2019-01-27T00:12:38.707Z,0.70
2019-01-27T00:15:10.377Z,1.00
2019-01-27T00:17:38.682Z,0.80
2019-01-27T00:20:15.962Z,1.35
2019-01-27T00:22:44.178Z,1.02
2019-01-27T00:25:12.488Z,1.65
2019-01-27T00:27:40.699Z,1.05
2019-01-27T00:30:12.175Z,1.60
2019-01-27T00:32:40.420Z,1.00
2019-01-27T00:35:08.774Z,1.20
2019-01-27T00:37:37.088Z,1.10
2019-01-27T00:40:07.784Z,0.88
2019-01-27T00:42:35.942Z,0.98
2019-01-27T00:45:04.820Z,0.82
2019-01-27T00:47:33.400Z,0.72
2019-01-27T00:50:01.624Z,0.62
2019-01-27T00:52:30.155Z,0.80
2019-01-27T00:54:58.376Z,0.88
2019-01-27T00:57:26.598Z,0.80
2019-01-27T00:59:54.893Z,1.07
2019-01-27T01:02:23.103Z,0.85
2019-01-27T01:04:51.329Z,0.70
2019-01-27T01:07:19.563Z,1.40
2019-01-27T01:09:47.773Z,1.05
2019-01-27T01:12:16.375Z,1.10
2019-01-27T01:14:44.613Z,1.30
2019-01-27T01:17:12.850Z,0.90
2019-01-27T01:19:41.109Z,1.85
2019-01-27T01:22:09.425Z,1.30
2019-01-27T01:24:37.657Z,1.22
2019-01-27T01:27:06.032Z,1.50
2019-01-27T01:29:34.241Z,1.20
2019-01-27T01:32:02.465Z,1.07
2019-01-27T01:34:30.682Z,1.40
2019-01-27T01:36:58.924Z,1.80
2019-01-27T01:39:27.143Z,1.25
2019-01-27T01:41:55.369Z,1.15
2019-01-27T01:44:23.836Z,1.75
2019-01-27T01:46:52.076Z,1.20
2019-01-27T01:49:20.315Z,1.20
2019-01-27T01:51:48.529Z,1.50
2019-01-27T01:54:16.835Z,1.32
2019-01-27T01:56:45.425Z,1.42
2019-01-27T01:59:13.723Z,1.15
2019-01-27T02:01:41.968Z,1.10
2019-01-27T02:04:10.184Z,1.42
2019-01-27T02:06:38.372Z,1.12
2019-01-27T02:09:09.168Z,1.25
2019-01-27T02:11:38.548Z,1.20
2019-01-27T02:14:06.825Z,1.30
2019-01-27T02:16:35.141Z,1.45
2019-01-27T02:19:03.367Z,1.07
2019-01-27T02:21:31.656Z,1.15
2019-01-27T02:24:00.443Z,1.10
2019-01-27T02:26:28.667Z,0.82
2019-01-27T02:28:56.897Z,0.80
2019-01-27T02:31:25.155Z,0.62
2019-01-27T02:33:53.354Z,0.90
2019-01-27T02:36:21.612Z,0.88
2019-01-27T02:38:49.828Z,0.80
2019-01-27T02:41:18.057Z,0.70
2019-01-27T02:43:46.287Z,1.00
2019-01-27T02:46:14.512Z,0.98
2019-01-27T02:48:42.748Z,1.05
2019-01-27T02:51:11.168Z,0.90
2019-01-27T02:53:39.756Z,0.70
2019-01-27T02:56:08.061Z,0.80
2019-01-27T02:58:36.298Z,1.00
2019-01-27T03:01:04.893Z,0.70
2019-01-27T03:03:33.643Z,0.85
2019-01-27T03:06:03.473Z,0.65
2019-01-27T03:08:33.401Z,0.60
2019-01-27T03:11:01.693Z,0.60
2019-01-27T03:13:29.928Z,0.80
2019-01-27T03:15:58.156Z,0.60
2019-01-27T03:18:26.391Z,0.65
2019-01-27T03:20:54.621Z,0.70
2019-01-27T03:23:22.881Z,0.78
2019-01-27T03:25:51.254Z,0.70
2019-01-27T03:28:19.528Z,0.82
2019-01-27T03:30:47.757Z,0.90
2019-01-27T03:33:15.969Z,0.70
2019-01-27T03:35:44.167Z,0.85
2019-01-27T03:38:12.410Z,0.78
2019-01-27T03:40:40.621Z,0.90
2019-01-27T03:43:08.871Z,0.70
2019-01-27T03:45:37.089Z,1.10
2019-01-27T03:48:05.439Z,1.82
2019-01-27T03:50:33.636Z,1.12
2019-01-27T03:53:01.907Z,0.85
2019-01-27T03:55:30.213Z,0.80
2019-01-27T03:57:58.428Z,1.00
2019-01-27T04:00:26.679Z,1.50
2019-01-27T04:02:54.899Z,1.10
2019-01-27T04:05:23.115Z,1.05
2019-01-27T04:07:51.347Z,1.10
2019-01-27T04:10:24.619Z,1.02
2019-01-27T04:12:52.857Z,1.00
2019-01-27T04:15:21.241Z,0.60
2019-01-27T04:17:49.464Z,0.73
2019-01-27T04:20:21.922Z,1.10
2019-01-27T04:22:50.212Z,1.10
2019-01-27T04:25:18.873Z,0.90
2019-01-27T04:27:47.191Z,1.02
2019-01-27T04:30:21.921Z,1.20
2019-01-27T04:32:50.145Z,0.80
2019-01-27T04:35:18.719Z,1.00
2019-01-27T04:37:46.972Z,0.80
2019-01-27T04:40:20.399Z,1.00
2019-01-27T04:42:48.621Z,0.80
2019-01-27T04:45:18.464Z,0.93
2019-01-27T04:47:46.699Z,1.00
2019-01-27T04:50:14.988Z,0.72
2019-01-27T04:52:43.304Z,1.35
2019-01-27T04:55:14.774Z,0.80
2019-01-27T04:57:42.999Z,1.20
2019-01-27T05:00:19.298Z,0.70
2019-01-27T05:02:49.167Z,0.60
2019-01-27T05:05:17.372Z,0.62
2019-01-27T05:07:45.581Z,0.70
2019-01-27T05:10:14.368Z,0.72
2019-01-27T05:12:42.616Z,0.70
2019-01-27T05:15:18.516Z,0.50
2019-01-27T05:17:46.721Z,0.70
2019-01-27T05:20:14.940Z,0.50
2019-01-27T05:22:43.147Z,0.42
2019-01-27T05:25:16.119Z,0.60
2019-01-27T05:27:44.366Z,0.80
2019-01-27T05:30:26.267Z,0.60
2019-01-27T05:32:54.633Z,0.50
2019-01-27T05:35:22.816Z,0.50
2019-01-27T05:37:51.039Z,0.47
2019-01-27T05:40:20.610Z,0.80
2019-01-27T05:42:48.855Z,0.80
2019-01-27T05:45:21.359Z,0.60
2019-01-27T05:47:49.569Z,0.60
2019-01-27T05:50:18.405Z,0.70
2019-01-27T05:52:46.621Z,0.82
2019-01-27T05:55:19.834Z,0.70
2019-01-27T05:57:48.052Z,0.62
2019-01-27T06:00:23.368Z,0.70
2019-01-27T06:02:51.597Z,0.70
2019-01-27T06:05:19.829Z,0.78
2019-01-27T06:07:48.029Z,0.50
2019-01-27T06:10:16.719Z,0.90
2019-01-27T06:12:44.952Z,0.70
2019-01-27T06:15:16.096Z,0.68
2019-01-27T06:17:44.322Z,0.90
2019-01-27T06:20:14.072Z,0.90
2019-01-27T06:22:42.534Z,0.70
2019-01-27T06:25:13.552Z,0.50
2019-01-27T06:27:41.772Z,0.70
2019-01-27T06:30:13.130Z,0.98
2019-01-27T06:32:48.802Z,0.98
2019-01-27T06:35:17.078Z,0.90
2019-01-27T06:37:45.407Z,0.60
2019-01-27T06:40:13.634Z,0.50
2019-01-27T06:42:41.846Z,0.85
2019-01-27T06:45:10.072Z,0.50
2019-01-27T06:47:38.284Z,0.45
2019-01-27T06:50:09.809Z,0.37
2019-01-27T06:52:38.025Z,0.50
2019-01-27T06:55:12.411Z,0.60
2019-01-27T06:57:40.637Z,0.60
2019-01-27T07:00:14.024Z,0.50
2019-01-27T07:02:42.387Z,0.62
2019-01-27T07:05:12.260Z,0.82
2019-01-27T07:07:42.207Z,0.57
2019-01-27T07:10:28.649Z,0.72
2019-01-27T07:12:58.563Z,0.57
2019-01-27T07:15:34.179Z,0.50
2019-01-27T07:18:04.203Z,0.93
2019-01-27T07:20:34.236Z,0.80
2019-01-27T07:23:06.754Z,0.50
2019-01-27T07:25:39.352Z,0.50
2019-01-27T07:28:15.148Z,1.00
2019-01-27T07:30:45.027Z,0.53
2019-01-27T07:33:15.171Z,0.57
2019-01-27T07:35:53.827Z,0.40
2019-01-27T07:38:23.687Z,0.50
2019-01-27T07:40:59.243Z,0.40
2019-01-27T07:43:35.530Z,0.75
2019-01-27T07:46:14.686Z,0.50
2019-01-27T07:48:44.540Z,0.50
2019-01-27T07:51:14.491Z,0.40
2019-01-27T07:53:47.389Z,0.70
2019-01-27T07:56:23.217Z,0.80
2019-01-27T07:59:11.040Z,0.50
2019-01-27T08:01:40.924Z,0.60
2019-01-27T08:04:22.894Z,0.50
2019-01-27T08:06:58.586Z,0.68
2019-01-27T08:09:43.559Z,0.40
2019-01-27T08:15:00.895Z,0.70
2019-01-27T08:17:30.726Z,0.40
2019-01-27T08:20:00.586Z,0.33
2019-01-27T08:22:30.450Z,0.37
2019-01-27T08:25:00.315Z,0.60
2019-01-27T08:27:30.207Z,0.65
2019-01-27T08:30:15.489Z,0.40
2019-01-27T08:32:48.207Z,0.40
2019-01-27T08:35:20.874Z,0.40
2019-01-27T08:37:56.607Z,0.40
2019-01-27T08:40:32.428Z,0.60
2019-01-27T08:43:11.517Z,0.50
2019-01-27T08:45:44.206Z,0.40
2019-01-27T08:48:12.409Z,0.40
2019-01-27T08:50:40.691Z,0.40
2019-01-27T08:53:08.878Z,0.42
2019-01-27T08:55:37.091Z,0.50
2019-01-27T08:58:05.319Z,0.55
2019-01-27T09:00:34.908Z,0.45
2019-01-27T09:03:07.486Z,0.40
2019-01-27T09:05:46.307Z,0.30
2019-01-27T09:08:16.196Z,0.40
2019-01-27T09:10:55.256Z,0.40
2019-01-27T09:13:25.079Z,0.50
2019-01-27T09:15:54.963Z,0.30
2019-01-27T09:18:27.575Z,0.50
2019-01-27T09:21:13.647Z,0.30
2019-01-27T09:23:43.517Z,0.30
2019-01-27T09:26:13.401Z,0.30
2019-01-27T09:28:45.940Z,0.40
2019-01-27T09:31:15.830Z,0.30
2019-01-27T09:33:51.740Z,0.40
2019-01-27T09:36:21.724Z,0.42
2019-01-27T09:38:51.631Z,0.30
2019-01-27T09:41:36.416Z,0.60
2019-01-27T09:44:09.295Z,0.30
2019-01-27T09:46:39.181Z,0.40
2019-01-27T09:49:09.036Z,0.42
2019-01-27T09:51:43.103Z,0.40
2019-01-27T09:54:18.200Z,0.40
2019-01-27T09:56:48.189Z,0.40
2019-01-27T09:59:18.117Z,0.45
2019-01-27T10:01:51.502Z,0.53
2019-01-27T10:04:21.460Z,0.40
2019-01-27T10:06:51.690Z,0.20
2019-01-27T10:09:39.765Z,0.33
2019-01-27T10:12:25.971Z,0.40
2019-01-27T10:15:13.813Z,0.50
2019-01-27T10:17:43.673Z,0.50
2019-01-27T10:20:30.063Z,0.40
2019-01-27T10:23:11.953Z,0.20
2019-01-27T10:25:41.808Z,0.30
2019-01-27T10:28:24.018Z,0.40
2019-01-27T10:31:02.878Z,0.40
2019-01-27T10:33:35.708Z,0.45
2019-01-27T10:36:14.282Z,0.30
2019-01-27T10:38:44.152Z,0.28
2019-01-27T10:41:16.436Z,0.42
2019-01-27T10:44:04.465Z,0.30
2019-01-27T10:46:39.986Z,0.20
2019-01-27T10:49:13.084Z,0.40
2019-01-27T10:51:51.583Z,0.40
2019-01-27T10:54:30.432Z,0.28
2019-01-27T10:57:00.430Z,0.28
2019-01-27T10:59:34.521Z,0.20
2019-01-27T11:02:22.666Z,0.30
2019-01-27T11:05:04.099Z,0.40
2019-01-27T11:07:45.965Z,0.30
2019-01-27T11:10:15.817Z,0.30
2019-01-27T11:12:48.744Z,0.40
2019-01-27T11:15:34.533Z,0.30
2019-01-27T11:18:04.841Z,0.20
2019-01-27T11:20:40.710Z,0.20
2019-01-27T11:23:19.739Z,0.37
2019-01-27T11:26:05.785Z,0.30
2019-01-27T11:28:38.645Z,0.33
2019-01-27T11:31:11.513Z,0.30
2019-01-27T11:33:57.980Z,0.70
2019-01-27T11:36:31.039Z,0.45
2019-01-27T11:39:03.323Z,0.60
2019-01-27T11:41:48.203Z,0.50
2019-01-27T11:44:18.085Z,0.35
2019-01-27T11:46:48.128Z,0.50
2019-01-27T11:49:24.259Z,0.40
2019-01-27T11:51:52.652Z,0.40
2019-01-27T11:54:20.894Z,0.30
2019-01-27T11:56:49.149Z,0.30
2019-01-27T11:59:17.386Z,0.40
2019-01-27T12:01:45.621Z,0.40
2019-01-27T12:04:13.904Z,0.42
2019-01-27T12:06:44.819Z,0.30
2019-01-27T12:09:13.073Z,0.40
2019-01-27T12:11:41.271Z,0.50
2019-01-27T12:14:09.697Z,0.42
2019-01-27T12:16:37.909Z,0.28
2019-01-27T12:19:06.183Z,0.30
2019-01-27T12:21:34.429Z,0.50
2019-01-27T12:24:02.711Z,0.50
2019-01-27T12:26:30.966Z,0.42
2019-01-27T12:28:59.192Z,0.40
2019-01-27T12:31:27.411Z,0.40
2019-01-27T12:33:55.749Z,0.50
2019-01-27T12:36:24.450Z,0.30
2019-01-27T12:38:53.010Z,0.70
2019-01-27T12:41:21.293Z,0.42
2019-01-27T12:43:49.655Z,0.47
2019-01-27T12:46:17.870Z,0.35
2019-01-27T12:48:46.110Z,0.30
2019-01-27T12:51:14.491Z,0.20
2019-01-27T12:53:42.715Z,0.35
2019-01-27T12:56:11.343Z,0.37
2019-01-27T12:58:39.591Z,0.20
2019-01-27T13:01:07.800Z,0.30
2019-01-27T13:03:36.145Z,0.45
2019-01-27T13:06:05.338Z,0.57
2019-01-27T13:08:33.594Z,0.40
2019-01-27T13:11:05.739Z,0.40
2019-01-27T13:13:32.525Z,0.23
2019-01-27T13:16:01.167Z,0.50
2019-01-27T13:18:29.417Z,0.33
2019-01-27T13:20:57.643Z,0.30
2019-01-27T13:23:25.977Z,0.30
2019-01-27T13:25:54.239Z,0.20
2019-01-27T13:28:22.566Z,0.50
2019-01-27T13:30:50.801Z,0.60
2019-01-27T13:33:19.043Z,0.40
2019-01-27T13:35:47.426Z,0.40
2019-01-27T13:38:15.645Z,0.30
2019-01-27T13:40:44.042Z,0.30
2019-01-27T13:43:12.461Z,0.33
2019-01-27T13:45:40.986Z,0.30
2019-01-27T13:48:09.238Z,0.30
2019-01-27T13:50:37.456Z,0.40
2019-01-27T13:53:05.696Z,0.30
2019-01-27T13:55:33.969Z,0.42
2019-01-27T13:58:02.236Z,0.50
2019-01-27T14:00:36.232Z,0.53
2019-01-27T14:03:04.720Z,0.37
2019-01-27T14:05:32.956Z,0.40
2019-01-27T14:08:01.195Z,0.45
2019-01-27T14:10:30.585Z,0.40
2019-01-27T14:12:58.822Z,0.50
2019-01-27T14:15:35.956Z,0.40
2019-01-27T14:18:05.042Z,0.50
2019-01-27T14:20:33.267Z,0.40
2019-01-27T14:23:01.529Z,0.42
2019-01-27T14:25:31.400Z,0.57
2019-01-27T14:27:59.655Z,0.30
2019-01-27T14:30:30.958Z,0.42
2019-01-27T14:32:59.164Z,0.20
2019-01-27T14:35:27.417Z,0.35
2019-01-27T14:37:55.825Z,0.30
2019-01-27T14:40:26.514Z,0.57
2019-01-27T14:42:54.707Z,0.40
2019-01-27T14:45:28.073Z,0.40
2019-01-27T14:47:56.316Z,0.35
2019-01-27T14:50:36.213Z,0.30
2019-01-27T14:53:05.157Z,0.72
2019-01-27T14:55:33.445Z,0.65
2019-01-27T14:58:01.697Z,0.42
2019-01-27T15:00:36.648Z,0.60
2019-01-27T15:03:05.748Z,0.60
2019-01-27T15:05:33.993Z,0.93
2019-01-27T15:08:02.243Z,0.53
2019-01-27T15:10:31.113Z,0.60
2019-01-27T15:12:59.369Z,0.90
2019-01-27T15:15:27.619Z,0.50
2019-01-27T15:17:55.838Z,0.50
2019-01-27T15:20:42.399Z,0.40
2019-01-27T15:23:10.698Z,0.70
2019-01-27T15:25:38.990Z,0.78
2019-01-27T15:28:07.209Z,0.60
2019-01-27T15:30:37.577Z,0.50
2019-01-27T15:33:06.817Z,0.60
2019-01-27T15:35:38.511Z,0.80
2019-01-27T15:38:06.349Z,1.05
2019-01-27T15:40:34.698Z,0.60
2019-01-27T15:43:02.941Z,0.70
2019-01-27T15:45:32.254Z,0.70
2019-01-27T15:48:00.572Z,0.50
2019-01-27T15:50:33.829Z,0.60
2019-01-27T15:53:02.339Z,0.65
2019-01-27T15:55:30.606Z,0.40
2019-01-27T15:57:58.859Z,0.57
2019-01-27T16:00:31.635Z,0.80
2019-01-27T16:03:00.729Z,0.88
2019-01-27T16:05:29.719Z,0.70
2019-01-27T16:07:58.751Z,0.60
2019-01-27T16:10:28.407Z,0.85
2019-01-27T16:12:57.715Z,0.72
2019-01-27T16:15:29.324Z,0.90
2019-01-27T16:17:59.258Z,0.60
2019-01-27T16:20:28.972Z,0.60
2019-01-27T16:23:16.079Z,0.70
2019-01-27T16:25:45.137Z,0.50
2019-01-27T16:28:14.119Z,0.70
2019-01-27T16:30:53.386Z,0.72
2019-01-27T16:33:27.104Z,0.55
2019-01-27T16:35:56.181Z,0.70
2019-01-27T16:38:25.252Z,0.60
2019-01-27T16:40:54.188Z,0.53
2019-01-27T16:43:23.224Z,0.50
2019-01-27T16:45:52.194Z,0.37
2019-01-27T16:48:21.226Z,0.30
2019-01-27T16:50:50.236Z,0.50
2019-01-27T16:53:19.386Z,0.70
2019-01-27T16:55:48.496Z,0.50
2019-01-27T16:58:17.514Z,0.50
2019-01-27T17:00:46.728Z,0.53
2019-01-27T17:03:16.037Z,0.60
2019-01-27T17:05:45.323Z,0.47
2019-01-27T17:08:13.968Z,0.50
2019-01-27T17:10:43.159Z,0.53
2019-01-27T17:13:11.542Z,0.70
2019-01-27T17:15:40.626Z,0.60
2019-01-27T17:18:09.556Z,0.78
2019-01-27T17:20:38.233Z,0.50
2019-01-27T17:23:07.160Z,0.47
2019-01-27T17:25:36.214Z,0.72
2019-01-27T17:28:05.109Z,0.50
2019-01-27T17:30:35.414Z,0.78
2019-01-27T17:33:06.174Z,0.70
2019-01-27T17:35:35.497Z,0.78
2019-01-27T17:38:04.543Z,0.72
2019-01-27T17:40:33.472Z,0.90
2019-01-27T17:43:02.449Z,0.80
2019-01-27T17:45:32.876Z,0.72
2019-01-27T17:48:01.803Z,0.80
2019-01-27T17:50:30.833Z,0.78
2019-01-27T17:52:59.959Z,0.80
2019-01-27T17:55:42.832Z,0.60
2019-01-27T17:58:18.871Z,0.80
2019-01-27T18:00:52.233Z,0.80
2019-01-27T18:03:22.863Z,0.95
2019-01-27T18:05:53.441Z,0.80
2019-01-27T18:08:24.312Z,1.47
2019-01-27T18:10:54.864Z,0.90
2019-01-27T18:13:25.261Z,0.75
2019-01-27T18:15:54.264Z,1.10
2019-01-27T18:18:23.229Z,0.80
2019-01-27T18:20:52.167Z,0.72
2019-01-27T18:23:21.095Z,0.68
2019-01-27T18:25:50.016Z,0.70
2019-01-27T18:28:19.318Z,0.70
2019-01-27T18:30:48.206Z,0.80
2019-01-27T18:33:17.128Z,0.88
2019-01-27T18:35:46.095Z,0.85
2019-01-27T18:38:15.105Z,0.80
2019-01-27T18:40:44.704Z,0.98
2019-01-27T18:43:13.663Z,1.27
2019-01-27T18:45:42.564Z,0.70
2019-01-27T18:48:11.569Z,1.00
2019-01-27T18:50:40.490Z,0.95
2019-01-27T18:53:13.759Z,0.98
2019-01-27T18:55:50.275Z,1.12
2019-01-27T18:58:35.650Z,1.30
2019-01-27T19:01:08.634Z,1.22
2019-01-27T19:03:40.914Z,1.10
2019-01-27T19:06:16.771Z,1.20
2019-01-27T19:09:03.241Z,0.57
2019-01-27T19:11:33.326Z,0.80
2019-01-27T19:14:06.951Z,0.70
2019-01-27T19:16:55.213Z,0.87
2019-01-27T19:19:25.211Z,1.03
2019-01-27T19:22:11.575Z,0.83
2019-01-27T19:24:47.430Z,0.77
2019-01-27T19:27:17.556Z,1.57
2019-01-27T19:29:56.662Z,0.90
2019-01-27T19:32:27.253Z,1.45
2019-01-27T19:34:57.347Z,1.27
2019-01-27T19:37:27.336Z,1.20
2019-01-27T19:40:09.347Z,1.90
2019-01-27T19:42:39.349Z,1.40
2019-01-27T19:45:12.489Z,1.70
2019-01-27T19:47:48.625Z,1.17
2019-01-27T19:50:27.703Z,0.90
2019-01-27T19:53:06.424Z,0.73
2019-01-27T19:55:36.429Z,0.90
2019-01-27T19:58:09.722Z,1.40
2019-01-27T20:00:39.703Z,1.10
2019-01-27T20:03:21.945Z,1.10
2019-01-27T20:06:08.043Z,0.87
2019-01-27T20:08:46.599Z,0.77
2019-01-27T20:11:25.237Z,1.00
2019-01-27T20:14:01.540Z,0.50
2019-01-27T20:16:46.543Z,1.00
2019-01-27T20:21:53.660Z,0.60
2019-01-27T20:24:38.745Z,0.73
2019-01-27T20:27:11.686Z,1.07
2019-01-27T20:29:50.744Z,1.00
2019-01-27T20:32:20.741Z,1.13
2019-01-27T20:35:02.917Z,0.87
2019-01-27T20:37:35.630Z,1.03
2019-01-27T20:40:07.724Z,0.80
2019-01-27T20:42:53.139Z,0.80
2019-01-27T20:45:39.264Z,1.00
2019-01-27T20:48:14.711Z,1.37
2019-01-27T20:50:56.543Z,0.73
2019-01-27T20:53:32.320Z,0.80
2019-01-27T20:56:11.312Z,1.03
2019-01-27T20:58:57.494Z,0.80
2019-01-27T21:01:27.503Z,0.80
2019-01-27T21:03:57.563Z,0.50
2019-01-27T21:06:30.208Z,1.10
2019-01-27T21:09:02.710Z,0.93
2019-01-27T21:11:32.766Z,1.03
2019-01-27T21:14:05.539Z,0.93
2019-01-27T21:16:35.595Z,1.07
2019-01-27T21:19:05.591Z,0.67
2019-01-27T21:21:33.933Z,1.13
2019-01-27T21:24:02.357Z,1.07
2019-01-27T21:26:31.031Z,1.20
2019-01-27T21:28:59.376Z,1.33
2019-01-27T21:31:27.833Z,1.47
2019-01-27T21:33:56.397Z,0.80
2019-01-27T21:36:24.832Z,0.83
2019-01-27T21:38:53.250Z,0.70
2019-01-27T21:41:21.595Z,0.50
2019-01-27T21:43:49.931Z,1.00
2019-01-27T21:46:18.565Z,0.80
2019-01-27T21:48:47.248Z,1.27
2019-01-27T21:51:15.601Z,0.80
2019-01-27T21:53:44.047Z,0.60
2019-01-27T21:56:14.461Z,1.07
2019-01-27T21:58:42.845Z,0.90
2019-01-27T22:01:11.304Z,1.00
2019-01-27T22:03:39.975Z,1.13
2019-01-27T22:06:08.327Z,1.10
2019-01-27T22:08:36.705Z,1.50
2019-01-27T22:11:05.136Z,1.20
2019-01-27T22:13:33.487Z,0.80
2019-01-27T22:16:02.174Z,0.80
2019-01-27T22:18:30.616Z,1.10
2019-01-27T22:20:59.237Z,1.30
2019-01-27T22:23:27.605Z,1.10
2019-01-27T22:25:56.287Z,1.13
2019-01-27T22:28:24.696Z,2.23
2019-01-27T22:30:53.353Z,1.10
2019-01-27T22:33:21.707Z,1.03
2019-01-27T22:35:50.073Z,0.93
2019-01-27T22:38:18.419Z,0.73
2019-01-27T22:40:47.189Z,1.30
2019-01-27T22:43:15.522Z,1.17
2019-01-27T22:45:43.863Z,0.80
2019-01-27T22:48:12.216Z,0.70
2019-01-27T22:50:40.552Z,0.80
2019-01-27T22:53:08.933Z,1.13
2019-01-27T22:55:37.561Z,0.60
2019-01-27T22:58:05.920Z,0.90
2019-01-27T23:00:41.885Z,0.90
2019-01-27T23:03:10.266Z,0.90
2019-01-27T23:05:38.748Z,0.87
2019-01-27T23:08:07.099Z,0.70
2019-01-27T23:10:35.797Z,0.60
2019-01-27T23:13:04.156Z,0.90
2019-01-27T23:15:32.503Z,1.13
2019-01-27T23:18:00.895Z,1.67
2019-01-27T23:20:29.240Z,0.80
2019-01-27T23:22:57.580Z,1.10
2019-01-27T23:25:26.011Z,1.00
2019-01-27T23:27:54.348Z,1.40
2019-01-27T23:30:22.732Z,0.90
2019-01-27T23:32:51.119Z,1.00
2019-01-27T23:35:19.500Z,0.80
2019-01-27T23:37:47.837Z,1.33
2019-01-27T23:40:16.432Z,0.83
2019-01-27T23:42:44.890Z,0.87
2019-01-27T23:45:13.606Z,1.47
2019-01-27T23:47:41.958Z,1.10
2019-01-27T23:50:10.636Z,1.03
2019-01-27T23:52:38.976Z,0.80
2019-01-27T23:55:09.420Z,0.97
2019-01-27T23:57:37.766Z,0.70
